Time;durP1;ratioP1;P1;durP2;ratioP2;P2;SDS_P1;SDS_P2;PMS_P1;PMS_P2;Temp;Humidity;BMP_temperature;BMP_pressure;BME280_temperature;BME280_humidity;BME280_pressure;Samples;Min_cycle;Max_cycle;Signal;HPM_P1;HPM_P2
2022/05/01 00:01:38;;;;;;;16.83;9.10;;;;;;;9.89;77.59;102467.50;5031429;28;20210;-70
2022/05/01 00:04:04;;;;;;;15.30;9.37;;;;;;;9.89;77.77;102464.06;5047351;28;20197;-70
2022/05/01 00:06:33;;;;;;;15.40;9.17;;;;;;;9.83;78.36;102461.22;5030260;28;20538;-70
2022/05/01 00:08:59;;;;;;;12.83;8.50;;;;;;;9.79;78.71;102460.19;5029771;28;20181;-70
2022/05/01 00:11:25;;;;;;;14.57;8.73;;;;;;;9.77;78.73;102456.66;5033149;28;20301;-70
2022/05/01 00:13:50;;;;;;;16.20;9.40;;;;;;;9.69;78.43;102455.44;5033235;28;20309;-70
2022/05/01 00:16:15;;;;;;;15.30;10.03;;;;;;;9.61;78.59;102458.41;5033220;28;20199;-70
2022/05/01 00:18:41;;;;;;;15.23;9.33;;;;;;;9.56;78.65;102455.63;5032864;28;20205;-70
2022/05/01 00:21:07;;;;;;;12.97;9.93;;;;;;;9.52;78.77;102458.84;5032381;28;20190;-70
2022/05/01 00:23:32;;;;;;;15.67;9.30;;;;;;;9.49;79.08;102455.28;5032515;28;20181;-70
2022/05/01 00:25:59;;;;;;;11.97;9.07;;;;;;;9.42;79.35;102450.63;5033427;28;20198;-70
2022/05/01 00:28:24;;;;;;;12.53;9.27;;;;;;;9.38;79.91;102451.28;5032430;28;20191;-70
2022/05/01 00:30:50;;;;;;;16.03;9.00;;;;;;;9.29;79.34;102451.72;5027694;28;20704;-70
2022/05/01 00:38:43;;;;;;;14.50;9.67;;;;;;;9.18;80.58;102450.31;5032301;28;20175;-71
2022/05/01 00:41:11;;;;;;;12.83;9.90;;;;;;;9.13;79.92;102458.53;5032387;28;20199;-71
2022/05/01 00:43:55;;;;;;;13.87;10.07;;;;;;;9.09;80.30;102447.28;5031575;28;20624;-70
2022/05/01 00:46:21;;;;;;;15.00;10.30;;;;;;;9.06;79.92;102457.34;5032738;28;20187;-70
2022/05/01 00:48:46;;;;;;;14.57;10.40;;;;;;;9.04;80.52;102455.50;5031651;28;20781;-70
2022/05/01 00:51:11;;;;;;;17.00;10.40;;;;;;;8.96;81.27;102462.78;5032116;28;20185;-71
2022/05/01 00:53:37;;;;;;;15.20;10.80;;;;;;;8.87;81.64;102459.75;5031623;28;20217;-70
2022/05/01 00:56:03;;;;;;;19.63;11.10;;;;;;;8.86;81.90;102458.00;5032121;28;20278;-70
2022/05/01 00:58:29;;;;;;;15.13;11.50;;;;;;;8.84;83.11;102454.47;5024329;28;20194;-70
2022/05/01 01:00:55;;;;;;;16.37;11.13;;;;;;;8.85;83.31;102453.66;5032299;28;20280;-70
2022/05/01 01:03:21;;;;;;;17.10;11.70;;;;;;;8.83;82.37;102459.50;5031960;28;20206;-70
2022/05/01 01:05:47;;;;;;;18.10;11.47;;;;;;;8.80;82.90;102457.66;5031506;28;20244;-70
2022/05/01 01:08:12;;;;;;;16.37;10.63;;;;;;;8.80;83.23;102460.22;5031807;28;20190;-70
2022/05/01 01:10:38;;;;;;;17.07;12.20;;;;;;;8.74;83.28;102456.44;5031421;28;20239;-70
2022/05/01 01:13:03;;;;;;;18.13;11.13;;;;;;;8.77;84.06;102457.53;5031976;28;20207;-70
2022/05/01 01:15:29;;;;;;;14.97;11.67;;;;;;;8.77;83.71;102454.97;5031493;28;20210;-70
2022/05/01 01:17:55;;;;;;;18.83;12.83;;;;;;;8.78;84.19;102460.94;5031574;28;20269;-70
2022/05/01 01:20:22;;;;;;;18.13;12.03;;;;;;;8.74;84.27;102462.44;5031289;28;20186;-70
2022/05/01 01:22:51;;;;;;;18.13;12.63;;;;;;;8.74;84.43;102456.44;5031202;28;20349;-70
2022/05/01 01:25:24;;;;;;;21.90;13.87;;;;;;;8.75;84.13;102453.13;5030375;28;20198;-70
2022/05/01 01:27:51;;;;;;;14.50;11.03;;;;;;;8.71;84.59;102459.72;5031399;28;20205;-70
2022/05/01 01:33:02;;;;;;;20.37;11.70;;;;;;;8.65;85.40;102456.84;5030708;28;20207;-70
2022/05/01 01:35:29;;;;;;;12.93;10.73;;;;;;;8.64;85.94;102457.66;5031436;28;20571;-70
2022/05/01 01:37:55;;;;;;;16.80;11.40;;;;;;;8.62;84.49;102459.25;5029431;28;20194;-70
2022/05/01 01:40:24;;;;;;;17.67;11.80;;;;;;;8.64;85.11;102465.31;5032162;28;20194;-71
2022/05/01 01:42:50;;;;;;;17.80;11.47;;;;;;;8.59;85.90;102479.53;5030768;28;20202;-70
2022/05/01 01:45:17;;;;;;;17.20;11.00;;;;;;;8.63;85.97;102473.78;5029048;28;20182;-70
2022/05/01 01:47:49;;;;;;;16.07;11.13;;;;;;;8.61;85.04;102477.06;5027343;28;20187;-70
2022/05/01 01:50:20;;;;;;;18.87;11.23;;;;;;;8.58;85.93;102469.22;5028233;28;20195;-70
2022/05/01 01:52:47;;;;;;;18.70;12.13;;;;;;;8.58;86.12;102475.22;5030650;28;20356;-70
2022/05/01 01:55:17;;;;;;;16.70;10.93;;;;;;;8.56;85.66;102481.91;5030937;28;20214;-70
2022/05/01 01:57:45;;;;;;;17.40;10.97;;;;;;;8.54;86.49;102480.97;5030841;28;20194;-70
2022/05/01 02:00:12;;;;;;;19.17;11.63;;;;;;;8.56;86.78;102479.34;5030360;28;20194;-70
2022/05/01 02:02:38;;;;;;;17.50;11.30;;;;;;;8.56;86.14;102469.13;5030852;28;20202;-70
2022/05/01 02:05:05;;;;;;;20.20;11.20;;;;;;;8.58;86.23;102475.22;5029123;28;20185;-70
2022/05/01 02:07:31;;;;;;;21.13;12.30;;;;;;;8.58;85.68;102477.78;5026702;28;20194;-70
2022/05/01 02:10:00;;;;;;;16.73;12.23;;;;;;;8.55;86.56;102479.25;5030949;28;20197;-70
2022/05/01 02:12:26;;;;;;;20.87;11.50;;;;;;;8.55;86.27;102476.72;5025039;28;20218;-70
2022/05/01 02:14:51;;;;;;;16.30;11.40;;;;;;;8.53;86.63;102473.22;5030778;28;20229;-70
2022/05/01 02:17:16;;;;;;;14.63;10.37;;;;;;;8.51;86.71;102477.34;5028319;28;20182;-70
2022/05/01 02:19:42;;;;;;;17.07;10.77;;;;;;;8.54;86.31;102475.84;5029571;28;20190;-70
2022/05/01 02:22:07;;;;;;;17.27;11.13;;;;;;;8.51;85.41;102475.69;5030419;28;20221;-70
2022/05/01 02:24:33;;;;;;;15.80;10.23;;;;;;;8.51;86.00;102475.69;5029899;28;20186;-70
2022/05/01 02:26:59;;;;;;;19.53;12.30;;;;;;;8.53;85.93;102470.66;5030263;28;20205;-71
2022/05/01 02:29:26;;;;;;;19.20;12.10;;;;;;;8.52;85.91;102466.34;5022914;28;20210;-70
2022/05/01 02:31:53;;;;;;;17.40;12.20;;;;;;;8.47;86.22;102475.44;5009728;28;20219;-70
2022/05/01 02:34:22;;;;;;;15.97;12.50;;;;;;;8.43;87.01;102468.41;5010121;28;20713;-71
2022/05/01 02:36:48;;;;;;;24.97;12.50;;;;;;;8.40;86.84;102470.78;5010477;28;20206;-70
2022/05/01 02:39:13;;;;;;;15.50;11.13;;;;;;;8.40;86.03;102464.03;5010241;28;20528;-70
2022/05/01 02:41:39;;;;;;;19.17;11.97;;;;;;;8.39;86.79;102467.34;5010623;28;20207;-70
2022/05/01 02:44:04;;;;;;;17.77;11.80;;;;;;;8.40;86.65;102465.69;5010793;28;20668;-70
2022/05/01 02:46:30;;;;;;;22.80;12.03;;;;;;;8.40;86.42;102463.13;5010621;28;20633;-70
2022/05/01 02:48:56;;;;;;;19.87;11.90;;;;;;;8.36;86.31;102466.31;5010374;28;20273;-70
2022/05/01 02:51:21;;;;;;;19.60;11.53;;;;;;;8.39;86.68;102471.59;5009955;28;20282;-70
2022/05/01 02:53:46;;;;;;;19.80;11.33;;;;;;;8.37;86.85;102465.50;5009180;28;20295;-70
2022/05/01 02:56:12;;;;;;;16.47;11.43;;;;;;;8.36;86.94;102471.41;5009537;28;20551;-70
2022/05/01 02:58:37;;;;;;;21.93;11.90;;;;;;;8.34;87.28;102467.91;5009536;28;20581;-70
2022/05/01 03:01:02;;;;;;;16.43;11.17;;;;;;;8.33;86.69;102472.13;5010393;28;20187;-70
2022/05/01 03:03:28;;;;;;;14.60;11.17;;;;;;;8.33;86.34;102468.69;5009934;28;20211;-70
2022/05/01 03:05:56;;;;;;;14.63;11.83;;;;;;;8.33;86.11;102463.59;5014943;28;20202;-70
2022/05/01 03:08:21;;;;;;;16.97;11.33;;;;;;;8.29;86.97;102470.19;5029809;28;20608;-70
2022/05/01 03:10:47;;;;;;;17.13;11.53;;;;;;;8.30;86.73;102466.00;5029867;28;20191;-70
2022/05/01 03:13:13;;;;;;;16.43;12.00;;;;;;;8.29;87.29;102462.53;5029342;28;20205;-70
2022/05/01 03:15:39;;;;;;;18.23;11.33;;;;;;;8.30;87.14;102460.88;5029898;28;20256;-70
2022/05/01 03:23:33;;;;;;;19.33;11.40;;;;;;;8.31;86.64;102458.41;5010080;28;20174;-70
2022/05/01 03:25:59;;;;;;;16.27;11.37;;;;;;;8.31;86.96;102457.53;5008445;28;20906;-70
2022/05/01 03:28:25;;;;;;;16.53;10.90;;;;;;;8.30;86.41;102454.09;5009909;28;20600;-70
2022/05/01 03:30:52;;;;;;;17.13;10.83;;;;;;;8.31;86.52;102448.22;5009431;28;20199;-70
2022/05/01 03:33:21;;;;;;;17.20;10.60;;;;;;;8.31;86.59;102444.78;5009974;28;20210;-70
2022/05/01 03:35:47;;;;;;;18.57;10.20;;;;;;;8.30;86.13;102461.75;5009972;28;20244;-70
2022/05/01 03:38:12;;;;;;;13.37;9.47;;;;;;;8.30;85.64;102456.63;5009842;28;20195;-70
2022/05/01 03:40:37;;;;;;;15.27;9.37;;;;;;;8.29;85.82;102460.00;5009451;28;20191;-70
2022/05/01 03:43:04;;;;;;;13.67;9.50;;;;;;;8.26;86.16;102461.50;5010803;28;20238;-70
2022/05/01 03:45:30;;;;;;;14.53;9.20;;;;;;;8.31;86.80;102454.97;5013583;28;20187;-70
2022/05/01 03:47:55;;;;;;;19.80;10.20;;;;;;;8.30;86.61;102456.63;5013056;28;20187;-70
2022/05/01 03:50:21;;;;;;;14.67;9.23;;;;;;;8.29;86.62;102457.44;5013667;28;20652;-70
2022/05/01 03:52:46;;;;;;;16.53;8.50;;;;;;;8.29;86.75;102461.69;5012394;28;20207;-70
2022/05/01 03:55:12;;;;;;;20.43;9.60;;;;;;;8.30;86.72;102454.09;5013442;28;20219;-70
2022/05/01 03:57:38;;;;;;;12.67;8.37;;;;;;;8.29;86.45;102462.53;5013112;28;20186;-70
2022/05/01 04:00:05;;;;;;;15.57;9.10;;;;;;;8.31;85.57;102457.53;5013492;28;20187;-70
2022/05/01 04:02:38;;;;;;;13.93;8.47;;;;;;;8.30;85.72;102455.78;5013349;28;20206;-70
2022/05/01 04:05:04;;;;;;;16.73;8.57;;;;;;;8.32;85.51;102456.72;5012918;28;20810;-70
2022/05/01 04:07:29;;;;;;;15.90;8.87;;;;;;;8.31;85.04;102462.63;5032603;28;20197;-70
2022/05/01 04:09:55;;;;;;;12.20;8.17;;;;;;;8.33;86.11;102461.91;5031220;28;20183;-70
2022/05/01 04:12:21;;;;;;;11.13;7.90;;;;;;;8.33;84.88;102459.38;5032881;28;20214;-70
2022/05/01 04:14:46;;;;;;;15.50;9.07;;;;;;;8.36;84.88;102461.22;5032416;28;20218;-70
2022/05/01 04:17:12;;;;;;;13.30;8.50;;;;;;;8.35;85.39;102460.34;5032803;28;20193;-70
2022/05/01 04:19:37;;;;;;;18.27;8.77;;;;;;;8.37;85.61;102468.94;5032812;28;20190;-70
2022/05/01 04:22:04;;;;;;;13.40;8.37;;;;;;;8.40;85.74;102460.56;5032607;28;20305;-70
2022/05/01 04:24:29;;;;;;;16.47;8.97;;;;;;;8.41;84.93;102463.22;5032634;28;20189;-70
2022/05/01 04:26:55;;;;;;;16.33;8.63;;;;;;;8.43;84.79;102463.31;5029870;28;20182;-70
2022/05/01 04:29:36;;;;;;;16.47;8.70;;;;;;;8.44;86.16;102465.06;5012908;28;20660;-70
2022/05/01 04:32:02;;;;;;;14.23;8.70;;;;;;;8.45;84.99;102467.69;5012304;28;20588;-70
2022/05/01 04:34:27;;;;;;;14.77;8.60;;;;;;;8.46;85.35;102471.09;5012784;28;20195;-69
2022/05/01 04:36:52;;;;;;;14.80;9.20;;;;;;;8.46;84.88;102466.00;5011983;28;20282;-70
2022/05/01 04:39:18;;;;;;;15.70;9.30;;;;;;;8.49;85.60;102466.19;5012603;28;20185;-70
2022/05/01 04:41:43;;;;;;;12.07;8.93;;;;;;;8.51;84.81;102462.03;5012393;28;20264;-70
2022/05/01 04:44:08;;;;;;;14.57;8.37;;;;;;;8.54;85.61;102467.31;5011340;28;20588;-70
2022/05/01 04:46:34;;;;;;;14.60;8.43;;;;;;;8.53;85.58;102465.56;5012576;28;20183;-70
2022/05/01 04:48:59;;;;;;;15.03;8.83;;;;;;;8.54;84.52;102468.19;5011840;28;20248;-70
2022/05/01 04:51:24;;;;;;;12.83;8.93;;;;;;;8.54;85.29;102465.63;5012320;28;20291;-70
2022/05/01 04:53:50;;;;;;;11.63;8.57;;;;;;;8.55;85.59;102458.84;5011639;28;20314;-70
2022/05/01 04:58:59;;;;;;;15.13;8.03;;;;;;;8.52;85.85;102468.91;5011864;28;20660;-70
2022/05/01 05:01:24;;;;;;;17.90;8.63;;;;;;;8.52;85.02;102479.13;5012658;28;20289;-70
2022/05/01 05:03:50;;;;;;;12.67;7.80;;;;;;;8.59;85.94;102476.06;5012422;28;20261;-70
2022/05/01 05:06:15;;;;;;;13.83;7.83;;;;;;;8.64;86.40;102479.75;5021007;28;20723;-70
2022/05/01 05:11:24;;;;;;;13.60;7.97;;;;;;;8.70;85.74;102480.09;5031469;28;20181;-68
2022/05/01 05:13:52;;;;;;;12.67;7.97;;;;;;;8.72;85.37;102481.03;5031816;28;20244;-69
2022/05/01 05:16:17;;;;;;;15.23;8.03;;;;;;;8.72;84.69;102474.28;5031255;28;20535;-69
2022/05/01 05:18:43;;;;;;;10.40;7.23;;;;;;;8.76;85.85;102481.28;5021636;28;20294;-70
2022/05/01 05:21:08;;;;;;;15.00;7.50;;;;;;;8.76;85.32;102478.72;5011707;28;20203;-71
2022/05/01 05:23:33;;;;;;;13.83;7.53;;;;;;;8.78;84.63;102481.34;5011770;28;20257;-69
2022/05/01 05:25:59;;;;;;;16.27;7.73;;;;;;;8.79;85.39;102484.00;5010525;28;20202;-69
2022/05/01 05:28:25;;;;;;;14.30;7.03;;;;;;;8.81;84.44;102484.94;5011186;28;20190;-69
2022/05/01 05:30:51;;;;;;;10.97;7.17;;;;;;;8.86;85.57;102492.88;5011477;28;20241;-68
2022/05/01 05:33:18;;;;;;;15.40;7.70;;;;;;;8.88;85.16;102489.59;5011280;28;20629;-72
2022/05/01 05:35:43;;;;;;;12.00;7.20;;;;;;;9.01;85.33;102486.88;5003092;28;20246;-74
2022/05/01 05:38:08;;;;;;;11.53;6.97;;;;;;;9.17;84.90;102486.84;5032186;28;20258;-73
2022/05/01 05:40:34;;;;;;;9.63;6.90;;;;;;;9.26;83.55;102489.03;5035259;28;20183;-73
2022/05/01 05:42:59;;;;;;;13.00;6.90;;;;;;;9.32;83.46;102491.88;5021081;28;20575;-72
2022/05/01 05:45:24;;;;;;;13.93;7.07;;;;;;;9.39;82.60;102484.59;5015970;28;20857;-73
2022/05/01 05:47:50;;;;;;;13.00;6.20;;;;;;;9.40;82.61;102481.22;5009095;28;20241;-73
2022/05/01 05:50:16;;;;;;;11.17;6.23;;;;;;;9.51;82.45;102477.56;5010395;28;20665;-72
2022/05/01 05:52:41;;;;;;;10.97;6.37;;;;;;;9.52;83.03;102470.75;5017454;28;20206;-74
2022/05/01 05:55:07;;;;;;;10.70;6.20;;;;;;;9.54;82.79;102472.56;5018526;28;20242;-74
2022/05/01 05:57:32;;;;;;;11.30;6.07;;;;;;;9.63;82.80;102478.13;5020419;28;20197;-72
2022/05/01 05:59:58;;;;;;;9.47;6.33;;;;;;;9.63;82.02;102480.69;5006872;28;20322;-73
2022/05/01 06:02:24;;;;;;;11.77;6.80;;;;;;;9.70;82.50;102492.09;5019992;28;20222;-70
2022/05/01 06:04:49;;;;;;;13.07;6.07;;;;;;;9.66;82.28;102485.97;5009973;28;20345;-70
2022/05/01 06:07:14;;;;;;;14.43;6.30;;;;;;;9.74;81.51;102488.91;5009435;28;20229;-73
2022/05/01 06:09:39;;;;;;;11.73;5.17;;;;;;;9.76;81.22;102500.06;5018592;28;20202;-69
2022/05/01 06:12:05;;;;;;;10.83;5.53;;;;;;;9.78;81.16;102503.59;5028740;28;20202;-70
2022/05/01 06:14:31;;;;;;;10.30;5.10;;;;;;;9.74;80.28;102501.69;5029377;28;20260;-70
2022/05/01 06:16:56;;;;;;;10.37;5.20;;;;;;;9.81;80.96;102498.66;5030689;28;20618;-70
2022/05/01 06:19:21;;;;;;;13.50;5.27;;;;;;;9.86;80.40;102505.72;5030039;28;20668;-69
2022/05/01 06:21:46;;;;;;;8.47;4.70;;;;;;;9.95;80.59;102495.06;5030930;28;20676;-70
2022/05/01 06:24:12;;;;;;;8.20;4.67;;;;;;;9.92;79.80;102492.34;5027445;28;20737;-71
2022/05/01 06:26:38;;;;;;;9.00;4.37;;;;;;;9.86;79.42;102505.72;5029682;28;20212;-71
2022/05/01 06:29:04;;;;;;;9.60;4.97;;;;;;;10.01;79.40;102493.69;5029682;28;20194;-71
2022/05/01 06:31:29;;;;;;;8.53;4.80;;;;;;;10.03;79.61;102498.84;5030213;28;20307;-71
2022/05/01 06:33:55;;;;;;;8.23;4.43;;;;;;;10.01;79.15;102498.81;5026550;28;20257;-71
2022/05/01 06:36:22;;;;;;;9.53;3.97;;;;;;;10.11;78.55;102503.59;5029093;28;20641;-71
2022/05/01 06:38:47;;;;;;;7.10;4.00;;;;;;;10.14;77.80;102500.31;5025440;28;20198;-71
2022/05/01 06:41:14;;;;;;;8.07;3.90;;;;;;;10.17;77.78;102502.97;5028491;28;20644;-71
2022/05/01 06:43:39;;;;;;;7.47;3.30;;;;;;;10.20;77.44;102495.47;5020442;28;20439;-70
2022/05/01 06:46:05;;;;;;;9.13;4.10;;;;;;;10.30;77.61;102493.41;5009851;28;20283;-70
2022/05/01 06:48:30;;;;;;;5.03;3.30;;;;;;;10.35;78.05;102485.94;5010002;28;20194;-71
2022/05/01 06:50:56;;;;;;;8.80;3.40;;;;;;;10.51;77.87;102481.59;5010547;28;20275;-71
2022/05/01 06:53:21;;;;;;;9.50;3.67;;;;;;;10.58;76.75;102488.75;5009369;28;20727;-71
2022/05/01 06:55:46;;;;;;;7.20;3.60;;;;;;;10.55;76.00;102487.75;5010408;28;20683;-71
2022/05/01 06:58:12;;;;;;;9.87;3.03;;;;;;;10.65;76.00;102484.78;5009780;28;20187;-70
2022/05/01 07:00:37;;;;;;;8.40;3.80;;;;;;;10.63;75.57;102474.47;5009482;28;20202;-71
2022/05/01 07:03:02;;;;;;;6.77;4.00;;;;;;;10.68;75.51;102480.66;5010041;28;20203;-71
2022/05/01 07:05:28;;;;;;;8.13;4.00;;;;;;;10.71;75.05;102480.81;5010287;28;20266;-71
2022/05/01 07:07:54;;;;;;;9.53;4.20;;;;;;;10.79;75.02;102483.72;5009660;28;20240;-71
2022/05/01 07:10:21;;;;;;;8.67;3.57;;;;;;;10.85;74.24;102483.97;5009996;28;20699;-71
2022/05/01 07:12:47;;;;;;;8.30;3.43;;;;;;;10.90;74.40;102485.06;5010197;28;20265;-71
2022/05/01 07:15:12;;;;;;;7.80;3.50;;;;;;;10.89;73.61;102484.22;5009706;28;20223;-71
2022/05/01 07:17:38;;;;;;;6.60;3.57;;;;;;;11.05;73.40;102483.16;5010842;28;20210;-71
2022/05/01 07:20:04;;;;;;;7.00;3.10;;;;;;;11.19;72.83;102482.97;5013723;28;20183;-71
2022/05/01 07:22:30;;;;;;;9.43;3.30;;;;;;;11.10;72.03;102487.69;5012663;28;20581;-71
2022/05/01 07:24:56;;;;;;;7.00;3.50;;;;;;;11.26;72.44;102490.13;5013639;28;20187;-71
2022/05/01 07:27:21;;;;;;;6.80;3.20;;;;;;;11.37;72.09;102491.44;5012864;28;20245;-71
2022/05/01 07:29:47;;;;;;;7.07;3.17;;;;;;;11.48;70.90;102490.19;5014106;28;20274;-71
2022/05/01 07:32:12;;;;;;;6.97;3.00;;;;;;;11.65;70.19;102485.78;5013334;28;20305;-71
2022/05/01 07:34:38;;;;;;;6.20;3.10;;;;;;;11.70;68.65;102492.88;5029074;28;20623;-71
2022/05/01 07:37:03;;;;;;;7.47;3.43;;;;;;;12.12;68.64;102493.75;5033314;28;20591;-71
2022/05/01 07:39:29;;;;;;;7.67;3.50;;;;;;;12.56;66.75;102494.66;5033571;28;20269;-71
2022/05/01 07:41:54;;;;;;;6.37;3.00;;;;;;;12.63;65.83;102501.75;5032229;28;20556;-71
2022/05/01 07:44:20;;;;;;;11.00;3.63;;;;;;;12.84;64.74;102505.13;5033804;28;20631;-71
2022/05/01 07:46:45;;;;;;;7.47;3.10;;;;;;;12.97;66.37;102498.78;5033253;28;20191;-71
2022/05/01 07:49:11;;;;;;;7.10;3.40;;;;;;;13.25;64.39;102501.50;5032961;28;20191;-71
2022/05/01 07:51:37;;;;;;;9.67;3.07;;;;;;;13.46;63.04;102499.69;5025051;28;20206;-71
2022/05/01 07:54:04;;;;;;;8.00;2.87;;;;;;;13.68;63.38;102503.84;5012986;28;20215;-71
2022/05/01 07:56:30;;;;;;;7.37;2.93;;;;;;;13.84;61.93;102495.78;5013579;28;20271;-71
2022/05/01 07:58:56;;;;;;;6.43;3.13;;;;;;;14.32;61.05;102481.94;5012814;28;20193;-71
2022/05/01 08:01:21;;;;;;;4.17;2.93;;;;;;;13.98;60.01;102490.28;5013420;28;20282;-70
2022/05/01 08:06:32;;;;;;;8.53;2.83;;;;;;;14.50;60.10;102482.50;5013302;28;20187;-71
2022/05/01 08:08:59;;;;;;;4.60;2.80;;;;;;;14.87;58.30;102485.31;5013650;28;20245;-71
2022/05/01 08:11:24;;;;;;;6.97;3.00;;;;;;;14.61;57.49;102486.25;5012759;28;20202;-71
2022/05/01 08:13:50;;;;;;;5.50;2.63;;;;;;;14.52;56.73;102485.97;5011895;28;20298;-71
2022/05/01 08:16:17;;;;;;;6.17;2.90;;;;;;;14.74;57.16;102485.78;5012578;28;20202;-71
2022/05/01 08:21:28;;;;;;;6.03;2.67;;;;;;;15.50;54.77;102476.72;5012586;28;20278;-71
2022/05/01 08:23:53;;;;;;;5.77;2.37;;;;;;;15.83;53.93;102474.97;5011684;28;20184;-71
2022/05/01 08:26:19;;;;;;;4.20;2.20;;;;;;;15.43;53.17;102475.69;5012866;28;20183;-71
2022/05/01 08:28:45;;;;;;;6.90;3.10;;;;;;;15.41;54.77;102476.47;5011051;28;20191;-71
2022/05/01 08:31:10;;;;;;;5.93;2.73;;;;;;;15.81;53.67;102471.50;5011768;28;20202;-71
2022/05/01 08:33:37;;;;;;;6.57;3.07;;;;;;;15.50;53.54;102468.97;5023717;28;20873;-71
2022/05/01 08:36:05;;;;;;;4.73;2.90;;;;;;;15.70;53.23;102475.53;5032662;28;20197;-71
2022/05/01 08:38:30;;;;;;;6.57;2.80;;;;;;;15.69;54.01;102469.47;5032165;28;20194;-71
2022/05/01 08:40:56;;;;;;;6.50;2.50;;;;;;;16.24;51.91;102467.38;5032184;28;20236;-71
2022/05/01 08:43:24;;;;;;;5.27;2.70;;;;;;;16.58;50.51;102469.88;5016617;28;20754;-71
2022/05/01 08:45:52;;;;;;;6.10;2.80;;;;;;;16.93;49.35;102463.69;5011533;28;20185;-71
2022/05/01 08:48:25;;;;;;;7.43;2.73;;;;;;;16.79;48.57;102470.31;5008338;28;20190;-71
2022/05/01 08:50:52;;;;;;;6.77;2.40;;;;;;;16.77;48.71;102468.53;5011802;28;20191;-71
2022/05/01 08:53:18;;;;;;;4.23;2.50;;;;;;;16.80;48.03;102459.13;5012079;28;20228;-71
2022/05/01 08:55:45;;;;;;;3.43;2.20;;;;;;;16.93;47.63;102468.88;5011797;28;20739;-71
2022/05/01 08:58:11;;;;;;;8.03;2.97;;;;;;;17.30;46.48;102466.13;5012217;28;20286;-71
2022/05/01 09:00:37;;;;;;;5.00;2.37;;;;;;;17.88;45.77;102452.47;5011243;28;20257;-71
2022/05/01 09:03:04;;;;;;;4.53;2.37;;;;;;;16.64;46.34;102459.66;5011019;28;20203;-72
2022/05/01 09:05:31;;;;;;;3.70;1.93;;;;;;;17.68;45.68;102459.06;5009653;28;20291;-72
2022/05/01 09:07:56;;;;;;;3.87;1.90;;;;;;;18.01;42.07;102444.88;5011748;28;20172;-73
2022/05/01 09:10:26;;;;;;;3.70;2.00;;;;;;;18.29;41.69;102447.03;5001552;28;20709;-73
2022/05/01 09:12:53;;;;;;;3.23;1.67;;;;;;;18.53;39.36;102442.22;5019839;28;20268;-73
2022/05/01 09:15:29;;;;;;;2.63;1.73;;;;;;;18.69;40.65;102445.84;5031441;28;20676;-72
2022/05/01 09:18:00;;;;;;;3.93;1.60;;;;;;;18.94;40.30;102448.78;5029657;28;20257;-74
2022/05/01 09:20:25;;;;;;;4.80;1.80;;;;;;;17.94;43.43;102455.16;5011510;28;20715;-74
2022/05/01 09:22:52;;;;;;;2.20;1.47;;;;;;;18.21;41.69;102455.56;5016463;28;20210;-73
2022/05/01 09:25:19;;;;;;;3.57;1.90;;;;;;;17.82;41.45;102465.34;5031522;28;20197;-73
2022/05/01 09:27:45;;;;;;;7.57;3.40;;;;;;;17.77;39.95;102456.63;5030929;28;20191;-74
2022/05/01 09:30:20;;;;;;;2.93;1.33;;;;;;;18.40;41.15;102467.97;5031013;28;20655;-74
2022/05/01 09:32:46;;;;;;;2.17;1.60;;;;;;;18.87;38.52;102462.53;5022689;28;20787;-74
2022/05/01 09:35:15;;;;;;;5.00;1.50;;;;;;;19.43;38.30;102452.75;5037563;28;20205;-74
2022/05/01 09:37:41;;;;;;;2.03;1.30;;;;;;;19.77;36.98;102453.03;5050691;28;20667;-73
2022/05/01 09:40:07;;;;;;;2.13;1.10;;;;;;;19.70;37.99;102455.56;5050736;28;20181;-73
2022/05/01 09:42:36;;;;;;;2.10;1.00;;;;;;;19.92;35.22;102445.34;5050810;28;20619;-73
2022/05/01 09:45:14;;;;;;;2.03;1.10;;;;;;;20.30;34.17;102450.81;5050686;28;20277;-73
2022/05/01 09:47:44;;;;;;;1.70;0.90;;;;;;;20.15;32.60;102448.13;5027210;28;20396;-73
2022/05/01 09:50:13;;;;;;;2.20;1.07;;;;;;;20.56;33.15;102444.91;5030405;28;20229;-73
2022/05/01 09:53:01;;;;;;;2.70;0.93;;;;;;;20.93;31.16;102436.38;5020587;28;20214;-73
2022/05/01 09:55:28;;;;;;;1.77;1.23;;;;;;;20.69;33.18;102440.59;5011309;28;20207;-73
2022/05/01 09:58:06;;;;;;;1.63;0.90;;;;;;;20.69;31.57;102435.41;5010651;28;20660;-73
2022/05/01 10:00:40;;;;;;;2.50;1.10;;;;;;;20.59;32.24;102431.03;5011407;28;20281;-73
2022/05/01 10:03:25;;;;;;;1.80;1.13;;;;;;;20.38;33.79;102429.19;5010564;28;20203;-74
2022/05/01 10:05:53;;;;;;;3.77;1.43;;;;;;;20.49;33.02;102434.44;5028346;28;20626;-73
2022/05/01 10:08:19;;;;;;;4.00;1.47;;;;;;;20.10;32.25;102436.81;5016371;28;20684;-74
2022/05/01 10:10:46;;;;;;;2.73;1.30;;;;;;;19.88;33.21;102435.78;5011113;28;20193;-73
2022/05/01 10:13:13;;;;;;;3.17;1.27;;;;;;;19.35;34.23;102433.63;5010695;28;20221;-73
2022/05/01 10:15:39;;;;;;;1.93;1.37;;;;;;;19.30;33.88;102430.97;5011196;28;20223;-73
2022/05/01 10:18:05;;;;;;;3.23;1.30;;;;;;;18.62;33.56;102437.13;5010835;28;20188;-73
2022/05/01 10:20:32;;;;;;;2.37;1.40;;;;;;;19.25;33.90;102435.25;5010718;28;20195;-73
2022/05/01 10:22:58;;;;;;;2.40;1.20;;;;;;;19.82;33.49;102425.34;5011177;28;20781;-73
2022/05/01 10:25:23;;;;;;;2.87;1.40;;;;;;;20.76;32.88;102425.00;5024147;28;20209;-73
2022/05/01 10:27:56;;;;;;;2.27;1.10;;;;;;;20.88;33.22;102413.75;5030387;28;20179;-73
2022/05/01 10:33:18;;;;;;;2.33;1.20;;;;;;;21.64;30.61;102416.44;5030295;28;20206;-73
2022/05/01 10:36:27;;;;;;;2.00;1.00;;;;;;;21.40;30.75;102412.97;5028562;28;20317;-73
2022/05/01 10:39:09;;;;;;;3.80;1.10;;;;;;;21.26;30.92;102415.59;5030090;28;20222;-74
2022/05/01 10:41:39;;;;;;;2.60;1.20;;;;;;;21.49;29.51;102407.75;5027717;28;20272;-73
2022/05/01 10:44:04;;;;;;;1.70;1.10;;;;;;;21.52;28.84;102408.63;5037107;28;20189;-74
2022/05/01 10:46:31;;;;;;;2.67;1.23;;;;;;;20.92;30.25;102412.94;5049710;28;20197;-74
2022/05/01 10:49:01;;;;;;;1.80;1.57;;;;;;;20.17;30.30;102420.41;5049952;28;20658;-74
2022/05/01 10:51:38;;;;;;;2.13;1.23;;;;;;;20.48;30.30;102417.06;5050250;28;20562;-73
2022/05/01 10:54:09;;;;;;;2.40;1.37;;;;;;;20.35;29.57;102416.16;5047705;28;20228;-73
2022/05/01 10:56:36;;;;;;;3.13;1.10;;;;;;;19.11;32.87;102407.38;5050103;28;20197;-73
2022/05/01 10:59:30;;;;;;;3.27;1.40;;;;;;;18.72;32.37;102412.16;5036705;28;20216;-73
2022/05/01 11:02:03;;;;;;;2.70;1.30;;;;;;;18.67;31.12;102408.63;5029810;28;20245;-73
2022/05/01 11:04:42;;;;;;;1.63;0.87;;;;;;;19.18;32.59;102411.78;5029732;28;20258;-73
2022/05/01 11:07:12;;;;;;;2.40;1.03;;;;;;;19.50;32.46;102412.97;5030013;28;20182;-73
2022/05/01 11:09:41;;;;;;;2.37;1.23;;;;;;;19.63;31.91;102402.66;5029494;28;20190;-74
2022/05/01 11:12:10;;;;;;;1.87;1.20;;;;;;;20.18;31.84;102406.53;5029935;28;20272;-73
2022/05/01 11:14:49;;;;;;;2.50;1.43;;;;;;;19.59;33.16;102400.03;5029481;28;20214;-73
2022/05/01 11:17:14;;;;;;;1.63;1.10;;;;;;;19.40;33.33;102406.78;5010282;28;20194;-74
2022/05/01 11:19:47;;;;;;;2.40;1.10;;;;;;;19.03;32.84;102401.25;5009704;28;20195;-74
2022/05/01 11:22:14;;;;;;;1.60;1.03;;;;;;;18.78;33.61;102404.41;5010093;28;20244;-73
2022/05/01 11:24:43;;;;;;;1.97;1.10;;;;;;;19.04;33.43;102403.84;5010212;28;20286;-73
2022/05/01 11:27:16;;;;;;;3.93;1.40;;;;;;;18.68;32.84;102399.97;5009987;28;20227;-73
2022/05/01 11:30:06;;;;;;;1.60;0.93;;;;;;;18.58;34.18;102403.31;5010089;28;20183;-73
2022/05/01 11:32:52;;;;;;;3.97;1.10;;;;;;;18.35;34.81;102400.47;5016905;28;20218;-73
2022/05/01 11:35:19;;;;;;;2.40;1.33;;;;;;;18.57;34.39;102399.84;5029904;28;20206;-73
2022/05/01 11:37:59;;;;;;;3.03;1.10;;;;;;;18.64;33.69;102398.19;5029339;28;20193;-74
2022/05/01 11:40:27;;;;;;;1.97;0.90;;;;;;;18.67;33.40;102395.66;5029778;28;20225;-73
2022/05/01 11:43:13;;;;;;;3.50;1.50;;;;;;;18.59;33.32;102402.47;5029257;28;20720;-74
2022/05/01 11:45:38;;;;;;;1.30;0.90;;;;;;;18.47;35.13;102403.19;5027568;28;20205;-73
2022/05/01 11:48:10;;;;;;;1.87;1.10;;;;;;;18.32;34.16;102399.50;5029178;28;20244;-74
2022/05/01 11:50:38;;;;;;;2.27;1.40;;;;;;;18.49;33.95;102398.03;5013694;28;20187;-74
2022/05/01 11:53:09;;;;;;;2.50;1.40;;;;;;;18.31;33.03;102398.66;5025164;28;20206;-73